Kezdőlap
METAR-TAF:

METAR-TAF

Repülőterek :

Béchar, Algéria

földrajzi szélesség: 31-37N, földrajzi hosszúság: 002-14W, magasság: 773 m

Jelenlegi meteorológiai megfigyelések

A jelentés 23 perccel ezelõtt készült, 01:00 UTC
Keleti szél 11 kt
Hőmérséklet 29°C
Páratartalom 12%
Légköri nyomás 1017 hPa
Látótávolság: 4000 m
Kevés felhő 3300 lábon
kiterjedt por,

METAR: DAOR 270100Z 10011KT 4000 DU FEW033 29/M03 Q1017

Idő: 02:23 (01:23 UTC)

Előrejelzés

A jelentés 2 órával és 23 perccel ezelõtt készült, 23:00 UTC
Az előrejelzés 27-én 00 óra UTC és 27-én 09 óra UTC között érvényes
Keleti szél 10 kt
Látótávolság: 4000 m
Kevés felhő 3300 lábon
kiterjedt por
Valószínűség 30%
27-én 03 óra UTC és 27-én 09 óra UTC között
Keleti szél 20 kt
Látótávolság: 2000 m
porvihar,

TAF: DAOR 262300Z 2700/2709 10010KT 4000 DU FEW033 PROB30 2703/2709 08020KT 2000 BLDU

Meteorológiai megfigyelések és előrejelzések több, mint 4000 repülőtéren (METAR és TAF jelentéseket).

A térképen piros és sárga pontok jelzik az elérhető meteorológiai állomásokat.

Mozgassa az egeret a pont fölött, hogy megjelenjen az állomás neve.

Azután kattintson az időjárási megfigyelések és előrejelzések megtekintéséhez.

A térkép megváltoztatása: kattintson a fekete keresztel jelölt zöld gombra ráközelítéshez, a vonallal jelölt zöld gombra távolításhoz, vagy a zöld nyilakra a szomszédos térképek eléréséhez.


METAR-TAF: